sensor_id;sensor_type;location;lat;lon;timestamp;temperature;humidity
5023;DHT22;2530;47.990;7.866;2022-10-31T00:01:54;12.60;99.90
5023;DHT22;2530;47.990;7.866;2022-10-31T00:04:19;12.60;99.90
5023;DHT22;2530;47.990;7.866;2022-10-31T00:06:45;12.60;99.90
5023;DHT22;2530;47.990;7.866;2022-10-31T00:09:10;12.60;99.90
5023;DHT22;2530;47.990;7.866;2022-10-31T00:11:36;12.60;99.90
5023;DHT22;2530;47.990;7.866;2022-10-31T00:14:02;12.50;99.90
5023;DHT22;2530;47.990;7.866;2022-10-31T00:16:29;12.50;99.90
5023;DHT22;2530;47.990;7.866;2022-10-31T00:18:58;12.50;99.90
5023;DHT22;2530;47.990;7.866;2022-10-31T00:21:24;12.60;99.90
5023;DHT22;2530;47.990;7.866;2022-10-31T00:23:50;12.50;99.90
5023;DHT22;2530;47.990;7.866;2022-10-31T00:26:16;12.60;99.90
5023;DHT22;2530;47.990;7.866;2022-10-31T00:28:42;12.60;99.90
5023;DHT22;2530;47.990;7.866;2022-10-31T00:31:09;12.60;99.90
5023;DHT22;2530;47.990;7.866;2022-10-31T00:33:38;12.60;99.90
5023;DHT22;2530;47.990;7.866;2022-10-31T00:36:05;12.60;99.90
5023;DHT22;2530;47.990;7.866;2022-10-31T00:38:31;12.70;99.90
5023;DHT22;2530;47.990;7.866;2022-10-31T00:40:57;12.60;99.90
5023;DHT22;2530;47.990;7.866;2022-10-31T00:43:23;12.60;99.90
5023;DHT22;2530;47.990;7.866;2022-10-31T00:45:49;12.40;99.90
5023;DHT22;2530;47.990;7.866;2022-10-31T00:48:15;12.50;99.90
5023;DHT22;2530;47.990;7.866;2022-10-31T00:50:40;12.40;99.90
5023;DHT22;2530;47.990;7.866;2022-10-31T00:53:06;12.40;99.90
5023;DHT22;2530;47.990;7.866;2022-10-31T00:55:32;12.40;99.90
5023;DHT22;2530;47.990;7.866;2022-10-31T00:57:58;12.40;99.90
5023;DHT22;2530;47.990;7.866;2022-10-31T01:00:24;12.50;99.90
5023;DHT22;2530;47.990;7.866;2022-10-31T01:02:49;12.40;99.90
5023;DHT22;2530;47.990;7.866;2022-10-31T01:05:15;12.40;99.90
5023;DHT22;2530;47.990;7.866;2022-10-31T01:07:41;12.40;99.90
5023;DHT22;2530;47.990;7.866;2022-10-31T01:10:07;12.50;99.90
5023;DHT22;2530;47.990;7.866;2022-10-31T01:12:41;12.40;99.90
5023;DHT22;2530;47.990;7.866;2022-10-31T01:15:08;12.50;99.90
5023;DHT22;2530;47.990;7.866;2022-10-31T01:17:34;12.40;99.90
5023;DHT22;2530;47.990;7.866;2022-10-31T01:20:00;12.30;99.90
5023;DHT22;2530;47.990;7.866;2022-10-31T01:22:25;12.30;99.90
5023;DHT22;2530;47.990;7.866;2022-10-31T01:24:51;12.30;99.90
5023;DHT22;2530;47.990;7.866;2022-10-31T01:27:16;12.20;99.90
5023;DHT22;2530;47.990;7.866;2022-10-31T01:29:42;12.20;99.90
5023;DHT22;2530;47.990;7.866;2022-10-31T01:32:07;12.20;99.90
5023;DHT22;2530;47.990;7.866;2022-10-31T01:34:33;12.20;99.90
5023;DHT22;2530;47.990;7.866;2022-10-31T01:36:59;12.10;99.90
5023;DHT22;2530;47.990;7.866;2022-10-31T01:39:24;12.20;99.90
5023;DHT22;2530;47.990;7.866;2022-10-31T01:41:52;12.10;99.90
5023;DHT22;2530;47.990;7.866;2022-10-31T01:51:57;12.40;99.90
5023;DHT22;2530;47.990;7.866;2022-10-31T01:54:26;12.30;99.90
5023;DHT22;2530;47.990;7.866;2022-10-31T01:56:53;12.30;99.90
5023;DHT22;2530;47.990;7.866;2022-10-31T01:59:21;12.30;99.90
5023;DHT22;2530;47.990;7.866;2022-10-31T02:01:47;12.30;99.90
5023;DHT22;2530;47.990;7.866;2022-10-31T02:04:15;12.30;99.90
5023;DHT22;2530;47.990;7.866;2022-10-31T02:06:52;12.20;99.90
5023;DHT22;2530;47.990;7.866;2022-10-31T02:09:20;12.30;99.90
5023;DHT22;2530;47.990;7.866;2022-10-31T02:11:50;12.20;99.90
5023;DHT22;2530;47.990;7.866;2022-10-31T02:14:16;12.30;99.90
5023;DHT22;2530;47.990;7.866;2022-10-31T02:16:42;12.30;99.90
5023;DHT22;2530;47.990;7.866;2022-10-31T02:19:09;12.40;99.90
5023;DHT22;2530;47.990;7.866;2022-10-31T02:21:49;12.40;99.90
5023;DHT22;2530;47.990;7.866;2022-10-31T02:24:43;12.30;99.90
5023;DHT22;2530;47.990;7.866;2022-10-31T02:27:16;12.40;99.90
5023;DHT22;2530;47.990;7.866;2022-10-31T02:35:13;12.40;99.90
5023;DHT22;2530;47.990;7.866;2022-10-31T02:38:11;12.50;99.90
5023;DHT22;2530;47.990;7.866;2022-10-31T02:40:54;12.50;99.90
5023;DHT22;2530;47.990;7.866;2022-10-31T02:46:13;12.50;99.90
5023;DHT22;2530;47.990;7.866;2022-10-31T02:48:42;12.40;99.90
5023;DHT22;2530;47.990;7.866;2022-10-31T02:51:11;12.40;99.90
5023;DHT22;2530;47.990;7.866;2022-10-31T02:53:37;12.30;99.90
5023;DHT22;2530;47.990;7.866;2022-10-31T02:56:18;12.30;99.90
5023;DHT22;2530;47.990;7.866;2022-10-31T02:58:49;12.40;99.90
5023;DHT22;2530;47.990;7.866;2022-10-31T03:01:25;12.40;99.90
5023;DHT22;2530;47.990;7.866;2022-10-31T03:04:09;12.40;99.90
5023;DHT22;2530;47.990;7.866;2022-10-31T03:12:40;12.30;99.90
5023;DHT22;2530;47.990;7.866;2022-10-31T03:15:25;12.20;99.90
5023;DHT22;2530;47.990;7.866;2022-10-31T03:17:57;12.00;99.90
5023;DHT22;2530;47.990;7.866;2022-10-31T03:20:33;12.10;99.90
5023;DHT22;2530;47.990;7.866;2022-10-31T03:23:02;12.10;99.90
5023;DHT22;2530;47.990;7.866;2022-10-31T03:25:29;12.20;99.90
5023;DHT22;2530;47.990;7.866;2022-10-31T03:27:56;12.20;99.90
5023;DHT22;2530;47.990;7.866;2022-10-31T03:30:23;12.30;99.90
5023;DHT22;2530;47.990;7.866;2022-10-31T03:32:52;12.20;99.90
5023;DHT22;2530;47.990;7.866;2022-10-31T03:35:22;12.00;99.90
5023;DHT22;2530;47.990;7.866;2022-10-31T03:37:49;12.00;99.90
5023;DHT22;2530;47.990;7.866;2022-10-31T03:40:18;12.00;99.90
5023;DHT22;2530;47.990;7.866;2022-10-31T03:43:00;12.10;99.90
5023;DHT22;2530;47.990;7.866;2022-10-31T03:45:29;12.10;99.90
5023;DHT22;2530;47.990;7.866;2022-10-31T03:47:56;12.10;99.90
5023;DHT22;2530;47.990;7.866;2022-10-31T03:50:26;12.10;99.90
5023;DHT22;2530;47.990;7.866;2022-10-31T03:53:09;12.20;99.90
5023;DHT22;2530;47.990;7.866;2022-10-31T03:55:51;12.20;99.90
5023;DHT22;2530;47.990;7.866;2022-10-31T03:58:45;12.20;99.90
5023;DHT22;2530;47.990;7.866;2022-10-31T04:01:15;12.30;99.90
5023;DHT22;2530;47.990;7.866;2022-10-31T04:03:43;12.20;99.90
5023;DHT22;2530;47.990;7.866;2022-10-31T04:06:11;12.20;99.90
5023;DHT22;2530;47.990;7.866;2022-10-31T04:08:45;12.20;99.90
5023;DHT22;2530;47.990;7.866;2022-10-31T04:11:13;12.10;99.90
5023;DHT22;2530;47.990;7.866;2022-10-31T04:13:41;12.20;99.90
5023;DHT22;2530;47.990;7.866;2022-10-31T04:16:09;12.10;99.90
5023;DHT22;2530;47.990;7.866;2022-10-31T04:18:35;12.20;99.90
5023;DHT22;2530;47.990;7.866;2022-10-31T04:21:06;12.10;99.90
5023;DHT22;2530;47.990;7.866;2022-10-31T04:23:33;12.20;99.90
5023;DHT22;2530;47.990;7.866;2022-10-31T04:25:59;12.20;99.90
5023;DHT22;2530;47.990;7.866;2022-10-31T04:28:25;12.10;99.90
5023;DHT22;2530;47.990;7.866;2022-10-31T04:30:51;12.10;99.90
5023;DHT22;2530;47.990;7.866;2022-10-31T04:33:17;12.20;99.90
5023;DHT22;2530;47.990;7.866;2022-10-31T04:35:42;12.20;99.90
5023;DHT22;2530;47.990;7.866;2022-10-31T04:38:08;12.20;99.90
5023;DHT22;2530;47.990;7.866;2022-10-31T04:40:34;12.30;99.90
5023;DHT22;2530;47.990;7.866;2022-10-31T04:42:59;12.30;99.90
5023;DHT22;2530;47.990;7.866;2022-10-31T04:45:25;12.30;99.90
5023;DHT22;2530;47.990;7.866;2022-10-31T04:47:50;12.30;99.90
5023;DHT22;2530;47.990;7.866;2022-10-31T04:50:16;12.30;99.90
5023;DHT22;2530;47.990;7.866;2022-10-31T04:52:43;12.30;99.90
5023;DHT22;2530;47.990;7.866;2022-10-31T04:55:10;12.30;99.90
5023;DHT22;2530;47.990;7.866;2022-10-31T04:57:43;12.30;99.90
5023;DHT22;2530;47.990;7.866;2022-10-31T05:00:10;12.30;99.90
5023;DHT22;2530;47.990;7.866;2022-10-31T05:03:02;12.20;99.90
5023;DHT22;2530;47.990;7.866;2022-10-31T05:05:29;12.20;99.90
5023;DHT22;2530;47.990;7.866;2022-10-31T05:07:55;12.20;99.90
5023;DHT22;2530;47.990;7.866;2022-10-31T05:10:23;12.20;99.90
5023;DHT22;2530;47.990;7.866;2022-10-31T05:12:57;12.20;99.90
5023;DHT22;2530;47.990;7.866;2022-10-31T05:15:24;12.20;99.90
5023;DHT22;2530;47.990;7.866;2022-10-31T05:17:50;12.20;99.90
5023;DHT22;2530;47.990;7.866;2022-10-31T05:20:17;12.20;99.90
5023;DHT22;2530;47.990;7.866;2022-10-31T05:22:49;12.00;99.90
5023;DHT22;2530;47.990;7.866;2022-10-31T05:25:15;12.00;99.90
5023;DHT22;2530;47.990;7.866;2022-10-31T05:27:42;12.00;99.90
5023;DHT22;2530;47.990;7.866;2022-10-31T05:30:10;11.90;99.90
5023;DHT22;2530;47.990;7.866;2022-10-31T05:32:45;11.90;99.90
5023;DHT22;2530;47.990;7.866;2022-10-31T05:35:13;11.90;99.90
5023;DHT22;2530;47.990;7.866;2022-10-31T05:37:39;11.90;99.90
5023;DHT22;2530;47.990;7.866;2022-10-31T05:40:06;11.90;99.90
5023;DHT22;2530;47.990;7.866;2022-10-31T05:42:32;12.00;99.90
5023;DHT22;2530;47.990;7.866;2022-10-31T05:44:58;11.90;99.90
5023;DHT22;2530;47.990;7.866;2022-10-31T05:47:24;11.80;99.90
5023;DHT22;2530;47.990;7.866;2022-10-31T05:49:49;11.80;99.90
5023;DHT22;2530;47.990;7.866;2022-10-31T05:52:15;11.80;99.90
5023;DHT22;2530;47.990;7.866;2022-10-31T05:54:41;11.80;99.90
5023;DHT22;2530;47.990;7.866;2022-10-31T05:57:07;11.70;99.90
5023;DHT22;2530;47.990;7.866;2022-10-31T05:59:32;11.80;99.90
5023;DHT22;2530;47.990;7.866;2022-10-31T06:01:58;11.80;99.90
5023;DHT22;2530;47.990;7.866;2022-10-31T06:04:23;11.80;99.90
5023;DHT22;2530;47.990;7.866;2022-10-31T06:06:49;11.80;99.90
5023;DHT22;2530;47.990;7.866;2022-10-31T06:09:14;11.90;99.90
5023;DHT22;2530;47.990;7.866;2022-10-31T06:11:40;11.90;99.90
5023;DHT22;2530;47.990;7.866;2022-10-31T06:14:06;11.80;99.90
5023;DHT22;2530;47.990;7.866;2022-10-31T06:16:31;11.80;99.90
5023;DHT22;2530;47.990;7.866;2022-10-31T06:18:57;11.80;99.90
5023;DHT22;2530;47.990;7.866;2022-10-31T06:21:23;11.80;99.90
5023;DHT22;2530;47.990;7.866;2022-10-31T06:23:48;11.80;99.90
5023;DHT22;2530;47.990;7.866;2022-10-31T06:26:14;11.90;99.90
5023;DHT22;2530;47.990;7.866;2022-10-31T06:28:40;11.90;99.90
5023;DHT22;2530;47.990;7.866;2022-10-31T06:31:05;11.90;99.90
5023;DHT22;2530;47.990;7.866;2022-10-31T06:33:31;11.90;99.90
5023;DHT22;2530;47.990;7.866;2022-10-31T06:35:56;11.90;99.90
5023;DHT22;2530;47.990;7.866;2022-10-31T06:38:22;11.80;99.90
5023;DHT22;2530;47.990;7.866;2022-10-31T06:40:47;11.90;99.90
5023;DHT22;2530;47.990;7.866;2022-10-31T06:43:13;11.90;99.90
5023;DHT22;2530;47.990;7.866;2022-10-31T06:45:40;12.00;99.90
5023;DHT22;2530;47.990;7.866;2022-10-31T06:48:05;12.10;99.90
5023;DHT22;2530;47.990;7.866;2022-10-31T06:50:31;12.20;99.90
5023;DHT22;2530;47.990;7.866;2022-10-31T06:52:59;12.20;99.90
5023;DHT22;2530;47.990;7.866;2022-10-31T06:55:26;12.20;99.90
5023;DHT22;2530;47.990;7.866;2022-10-31T06:57:52;12.30;99.90
5023;DHT22;2530;47.990;7.866;2022-10-31T07:00:19;12.30;99.90
5023;DHT22;2530;47.990;7.866;2022-10-31T07:02:56;12.30;99.90
5023;DHT22;2530;47.990;7.866;2022-10-31T07:05:22;12.30;99.90
5023;DHT22;2530;47.990;7.866;2022-10-31T07:07:52;12.30;99.90
5023;DHT22;2530;47.990;7.866;2022-10-31T07:10:18;12.40;99.90
5023;DHT22;2530;47.990;7.866;2022-10-31T07:12:43;12.40;99.90
5023;DHT22;2530;47.990;7.866;2022-10-31T07:15:09;12.50;99.90
5023;DHT22;2530;47.990;7.866;2022-10-31T07:17:34;12.50;99.90
5023;DHT22;2530;47.990;7.866;2022-10-31T07:20:00;12.50;99.90
5023;DHT22;2530;47.990;7.866;2022-10-31T07:22:35;12.60;99.90
5023;DHT22;2530;47.990;7.866;2022-10-31T07:25:00;12.60;99.90
5023;DHT22;2530;47.990;7.866;2022-10-31T07:27:26;12.60;99.90
5023;DHT22;2530;47.990;7.866;2022-10-31T07:29:51;12.70;99.90
5023;DHT22;2530;47.990;7.866;2022-10-31T07:32:17;12.70;99.90
5023;DHT22;2530;47.990;7.866;2022-10-31T07:34:42;12.80;99.90
5023;DHT22;2530;47.990;7.866;2022-10-31T07:37:08;12.90;99.90
5023;DHT22;2530;47.990;7.866;2022-10-31T07:39:34;12.90;99.90
5023;DHT22;2530;47.990;7.866;2022-10-31T07:41:59;13.00;99.90
5023;DHT22;2530;47.990;7.866;2022-10-31T07:44:25;13.00;99.90
5023;DHT22;2530;47.990;7.866;2022-10-31T07:46:50;13.00;99.90
5023;DHT22;2530;47.990;7.866;2022-10-31T07:49:16;13.10;99.90
5023;DHT22;2530;47.990;7.866;2022-10-31T07:51:41;13.10;99.90
5023;DHT22;2530;47.990;7.866;2022-10-31T07:54:07;13.10;99.90
5023;DHT22;2530;47.990;7.866;2022-10-31T07:56:32;13.20;99.90
5023;DHT22;2530;47.990;7.866;2022-10-31T07:58:58;13.40;99.90
5023;DHT22;2530;47.990;7.866;2022-10-31T08:01:23;13.40;99.90
5023;DHT22;2530;47.990;7.866;2022-10-31T08:03:49;13.40;99.90
5023;DHT22;2530;47.990;7.866;2022-10-31T08:06:15;13.50;99.90
5023;DHT22;2530;47.990;7.866;2022-10-31T08:08:40;13.60;99.90
5023;DHT22;2530;47.990;7.866;2022-10-31T08:11:06;13.70;99.90
5023;DHT22;2530;47.990;7.866;2022-10-31T08:13:31;13.80;99.90
5023;DHT22;2530;47.990;7.866;2022-10-31T08:15:57;13.80;99.90
5023;DHT22;2530;47.990;7.866;2022-10-31T08:18:28;13.90;99.90
5023;DHT22;2530;47.990;7.866;2022-10-31T08:20:54;13.90;99.90
5023;DHT22;2530;47.990;7.866;2022-10-31T08:23:20;14.00;99.90
5023;DHT22;2530;47.990;7.866;2022-10-31T08:25:46;14.10;99.90
5023;DHT22;2530;47.990;7.866;2022-10-31T08:28:13;14.20;99.90
5023;DHT22;2530;47.990;7.866;2022-10-31T08:30:40;14.20;99.90
5023;DHT22;2530;47.990;7.866;2022-10-31T08:33:16;14.20;99.90
5023;DHT22;2530;47.990;7.866;2022-10-31T08:35:42;14.30;99.90
5023;DHT22;2530;47.990;7.866;2022-10-31T08:38:09;14.50;99.90
5023;DHT22;2530;47.990;7.866;2022-10-31T08:40:35;14.50;99.90
5023;DHT22;2530;47.990;7.866;2022-10-31T08:43:03;14.50;99.90
5023;DHT22;2530;47.990;7.866;2022-10-31T08:45:30;14.60;99.90
5023;DHT22;2530;47.990;7.866;2022-10-31T08:47:57;14.60;99.90
5023;DHT22;2530;47.990;7.866;2022-10-31T08:50:23;14.70;99.90
5023;DHT22;2530;47.990;7.866;2022-10-31T08:52:49;14.70;99.90
5023;DHT22;2530;47.990;7.866;2022-10-31T08:55:15;14.80;99.90
5023;DHT22;2530;47.990;7.866;2022-10-31T08:57:40;14.90;99.90
5023;DHT22;2530;47.990;7.866;2022-10-31T09:00:06;15.00;99.90
5023;DHT22;2530;47.990;7.866;2022-10-31T09:02:32;15.00;99.90
5023;DHT22;2530;47.990;7.866;2022-10-31T09:04:58;15.00;99.90
5023;DHT22;2530;47.990;7.866;2022-10-31T09:07:23;15.10;99.90
5023;DHT22;2530;47.990;7.866;2022-10-31T09:09:49;15.20;99.90
5023;DHT22;2530;47.990;7.866;2022-10-31T09:12:14;15.30;99.90
5023;DHT22;2530;47.990;7.866;2022-10-31T09:14:40;15.30;99.90
5023;DHT22;2530;47.990;7.866;2022-10-31T09:17:05;15.30;99.90
5023;DHT22;2530;47.990;7.866;2022-10-31T09:19:31;15.40;99.90
5023;DHT22;2530;47.990;7.866;2022-10-31T09:21:56;15.50;99.90
5023;DHT22;2530;47.990;7.866;2022-10-31T09:24:22;15.80;99.90
5023;DHT22;2530;47.990;7.866;2022-10-31T09:26:47;15.80;99.90
5023;DHT22;2530;47.990;7.866;2022-10-31T09:29:13;15.90;99.90
5023;DHT22;2530;47.990;7.866;2022-10-31T09:31:38;16.10;99.90
5023;DHT22;2530;47.990;7.866;2022-10-31T09:34:04;16.10;99.90
5023;DHT22;2530;47.990;7.866;2022-10-31T09:36:29;16.20;99.90
5023;DHT22;2530;47.990;7.866;2022-10-31T09:38:55;16.30;99.90
5023;DHT22;2530;47.990;7.866;2022-10-31T09:52:24;16.60;99.90
5023;DHT22;2530;47.990;7.866;2022-10-31T09:54:59;16.80;99.90
5023;DHT22;2530;47.990;7.866;2022-10-31T09:57:29;16.80;99.90
5023;DHT22;2530;47.990;7.866;2022-10-31T09:59:56;17.00;99.90
5023;DHT22;2530;47.990;7.866;2022-10-31T10:02:36;16.80;99.90
5023;DHT22;2530;47.990;7.866;2022-10-31T10:05:08;16.90;99.90
5023;DHT22;2530;47.990;7.866;2022-10-31T10:07:55;16.90;99.90
5023;DHT22;2530;47.990;7.866;2022-10-31T10:10:48;16.80;99.90
5023;DHT22;2530;47.990;7.866;2022-10-31T10:13:22;16.90;99.90
5023;DHT22;2530;47.990;7.866;2022-10-31T10:16:19;16.80;99.90
5023;DHT22;2530;47.990;7.866;2022-10-31T10:19:09;16.80;99.90
5023;DHT22;2530;47.990;7.866;2022-10-31T10:29:47;16.50;99.90
5023;DHT22;2530;47.990;7.866;2022-10-31T10:32:23;16.60;99.90
5023;DHT22;2530;47.990;7.866;2022-10-31T10:34:54;16.50;99.90
5023;DHT22;2530;47.990;7.866;2022-10-31T10:39:54;16.60;99.90
5023;DHT22;2530;47.990;7.866;2022-10-31T10:42:21;16.50;99.90
5023;DHT22;2530;47.990;7.866;2022-10-31T10:45:19;16.50;99.90
5023;DHT22;2530;47.990;7.866;2022-10-31T10:48:15;16.50;99.90
5023;DHT22;2530;47.990;7.866;2022-10-31T10:50:51;16.40;99.90
5023;DHT22;2530;47.990;7.866;2022-10-31T10:58:57;16.20;99.90
5023;DHT22;2530;47.990;7.866;2022-10-31T11:01:23;16.20;99.90
5023;DHT22;2530;47.990;7.866;2022-10-31T11:03:49;16.20;99.90
5023;DHT22;2530;47.990;7.866;2022-10-31T11:06:19;16.20;99.90
5023;DHT22;2530;47.990;7.866;2022-10-31T11:08:48;16.40;99.90
5023;DHT22;2530;47.990;7.866;2022-10-31T11:13:44;16.50;99.90
5023;DHT22;2530;47.990;7.866;2022-10-31T11:16:32;16.80;99.90
5023;DHT22;2530;47.990;7.866;2022-10-31T11:19:19;16.70;99.90
5023;DHT22;2530;47.990;7.866;2022-10-31T11:21:48;16.70;99.90
5023;DHT22;2530;47.990;7.866;2022-10-31T11:24:19;16.70;99.90
5023;DHT22;2530;47.990;7.866;2022-10-31T11:26:47;16.80;99.90
5023;DHT22;2530;47.990;7.866;2022-10-31T11:29:24;16.80;99.90
5023;DHT22;2530;47.990;7.866;2022-10-31T11:31:52;17.00;99.90
5023;DHT22;2530;47.990;7.866;2022-10-31T11:34:34;17.00;99.90
5023;DHT22;2530;47.990;7.866;2022-10-31T11:37:12;17.30;99.90
5023;DHT22;2530;47.990;7.866;2022-10-31T11:39:46;17.30;99.90
5023;DHT22;2530;47.990;7.866;2022-10-31T11:42:20;17.80;99.90
5023;DHT22;2530;47.990;7.866;2022-10-31T11:44:46;17.90;99.90
5023;DHT22;2530;47.990;7.866;2022-10-31T11:47:15;18.00;99.90
5023;DHT22;2530;47.990;7.866;2022-10-31T11:49:45;18.40;99.90
5023;DHT22;2530;47.990;7.866;2022-10-31T11:52:24;18.70;99.90
5023;DHT22;2530;47.990;7.866;2022-10-31T11:55:16;18.90;99.90
5023;DHT22;2530;47.990;7.866;2022-10-31T11:57:45;19.40;99.90
5023;DHT22;2530;47.990;7.866;2022-10-31T12:02:48;20.30;99.90
5023;DHT22;2530;47.990;7.866;2022-10-31T12:05:21;20.70;99.90
5023;DHT22;2530;47.990;7.866;2022-10-31T12:07:48;20.20;99.90
5023;DHT22;2530;47.990;7.866;2022-10-31T12:10:15;20.80;99.90
5023;DHT22;2530;47.990;7.866;2022-10-31T12:15:36;22.10;98.00
5023;DHT22;2530;47.990;7.866;2022-10-31T12:20:56;22.70;96.30
5023;DHT22;2530;47.990;7.866;2022-10-31T12:53:39;23.90;88.60
5023;DHT22;2530;47.990;7.866;2022-10-31T12:56:29;24.00;89.00
5023;DHT22;2530;47.990;7.866;2022-10-31T13:01:42;25.70;79.80
5023;DHT22;2530;47.990;7.866;2022-10-31T13:04:24;25.40;81.80
5023;DHT22;2530;47.990;7.866;2022-10-31T13:06:58;24.80;83.00
5023;DHT22;2530;47.990;7.866;2022-10-31T13:09:47;23.60;86.40
5023;DHT22;2530;47.990;7.866;2022-10-31T13:12:17;23.10;89.70
5023;DHT22;2530;47.990;7.866;2022-10-31T13:14:51;23.00;91.40
5023;DHT22;2530;47.990;7.866;2022-10-31T13:17:31;22.30;92.70
5023;DHT22;2530;47.990;7.866;2022-10-31T13:20:20;21.40;95.90
5023;DHT22;2530;47.990;7.866;2022-10-31T13:22:49;20.80;99.90
5023;DHT22;2530;47.990;7.866;2022-10-31T13:25:20;20.30;99.90
5023;DHT22;2530;47.990;7.866;2022-10-31T13:28:12;20.00;99.90
5023;DHT22;2530;47.990;7.866;2022-10-31T13:30:41;19.90;99.90
5023;DHT22;2530;47.990;7.866;2022-10-31T13:33:17;19.80;99.90
5023;DHT22;2530;47.990;7.866;2022-10-31T13:36:06;20.10;99.90
5023;DHT22;2530;47.990;7.866;2022-10-31T13:39:17;20.90;99.90
5023;DHT22;2530;47.990;7.866;2022-10-31T13:41:48;21.50;99.60
5023;DHT22;2530;47.990;7.866;2022-10-31T13:44:24;21.30;98.10
5023;DHT22;2530;47.990;7.866;2022-10-31T13:46:51;20.90;99.90
5023;DHT22;2530;47.990;7.866;2022-10-31T13:54:38;20.20;99.90
5023;DHT22;2530;47.990;7.866;2022-10-31T13:57:31;19.80;99.90
5023;DHT22;2530;47.990;7.866;2022-10-31T14:00:01;19.80;99.90
5023;DHT22;2530;47.990;7.866;2022-10-31T14:02:31;19.40;99.90
5023;DHT22;2530;47.990;7.866;2022-10-31T14:04:59;19.40;99.90
5023;DHT22;2530;47.990;7.866;2022-10-31T14:07:26;19.30;99.90
5023;DHT22;2530;47.990;7.866;2022-10-31T14:09:57;19.20;99.90
5023;DHT22;2530;47.990;7.866;2022-10-31T14:12:42;19.10;99.90
5023;DHT22;2530;47.990;7.866;2022-10-31T14:15:25;19.20;99.90
5023;DHT22;2530;47.990;7.866;2022-10-31T14:17:55;19.10;99.90
5023;DHT22;2530;47.990;7.866;2022-10-31T14:22:56;18.70;99.90
5023;DHT22;2530;47.990;7.866;2022-10-31T14:27:54;18.80;99.90
5023;DHT22;2530;47.990;7.866;2022-10-31T14:30:22;18.90;99.90
5023;DHT22;2530;47.990;7.866;2022-10-31T14:33:02;18.90;99.90
5023;DHT22;2530;47.990;7.866;2022-10-31T14:35:48;19.00;99.90
5023;DHT22;2530;47.990;7.866;2022-10-31T14:44:00;19.50;99.90
5023;DHT22;2530;47.990;7.866;2022-10-31T14:52:12;19.70;99.90
5023;DHT22;2530;47.990;7.866;2022-10-31T14:54:42;19.60;99.90
5023;DHT22;2530;47.990;7.866;2022-10-31T14:57:35;19.70;99.90
5023;DHT22;2530;47.990;7.866;2022-10-31T15:00:07;19.60;99.90
5023;DHT22;2530;47.990;7.866;2022-10-31T15:05:22;19.20;99.90
5023;DHT22;2530;47.990;7.866;2022-10-31T15:07:56;19.10;99.90
5023;DHT22;2530;47.990;7.866;2022-10-31T15:10:31;19.00;99.90
5023;DHT22;2530;47.990;7.866;2022-10-31T15:13:18;19.10;99.90
5023;DHT22;2530;47.990;7.866;2022-10-31T15:15:45;18.90;99.90
5023;DHT22;2530;47.990;7.866;2022-10-31T15:18:20;18.80;99.90
5023;DHT22;2530;47.990;7.866;2022-10-31T15:20:46;18.60;99.90
5023;DHT22;2530;47.990;7.866;2022-10-31T15:23:17;18.50;99.90
5023;DHT22;2530;47.990;7.866;2022-10-31T15:25:46;18.30;99.90
5023;DHT22;2530;47.990;7.866;2022-10-31T15:28:20;18.20;99.90
5023;DHT22;2530;47.990;7.866;2022-10-31T15:30:51;18.20;99.90
5023;DHT22;2530;47.990;7.866;2022-10-31T15:33:24;18.10;99.90
5023;DHT22;2530;47.990;7.866;2022-10-31T15:35:58;17.90;99.90
5023;DHT22;2530;47.990;7.866;2022-10-31T15:38:24;17.80;99.90
5023;DHT22;2530;47.990;7.866;2022-10-31T15:40:54;17.60;99.90
5023;DHT22;2530;47.990;7.866;2022-10-31T15:43:21;17.70;99.90
5023;DHT22;2530;47.990;7.866;2022-10-31T15:45:46;17.70;99.90
5023;DHT22;2530;47.990;7.866;2022-10-31T15:48:22;17.70;99.90
5023;DHT22;2530;47.990;7.866;2022-10-31T15:50:52;17.70;99.90
5023;DHT22;2530;47.990;7.866;2022-10-31T15:53:54;17.60;99.90
5023;DHT22;2530;47.990;7.866;2022-10-31T15:56:27;17.30;99.90
5023;DHT22;2530;47.990;7.866;2022-10-31T15:58:55;17.30;99.90
5023;DHT22;2530;47.990;7.866;2022-10-31T16:01:30;17.20;99.90
5023;DHT22;2530;47.990;7.866;2022-10-31T16:04:04;16.90;99.90
5023;DHT22;2530;47.990;7.866;2022-10-31T16:06:31;16.80;99.90
5023;DHT22;2530;47.990;7.866;2022-10-31T16:08:57;16.80;99.90
5023;DHT22;2530;47.990;7.866;2022-10-31T16:11:37;16.80;99.90
5023;DHT22;2530;47.990;7.866;2022-10-31T16:16:42;16.70;99.90
5023;DHT22;2530;47.990;7.866;2022-10-31T16:19:19;16.70;99.90
5023;DHT22;2530;47.990;7.866;2022-10-31T16:21:48;16.50;99.90
5023;DHT22;2530;47.990;7.866;2022-10-31T16:24:22;16.60;99.90
5023;DHT22;2530;47.990;7.866;2022-10-31T16:26:51;16.60;99.90
5023;DHT22;2530;47.990;7.866;2022-10-31T16:29:32;16.50;99.90
5023;DHT22;2530;47.990;7.866;2022-10-31T16:32:00;16.40;99.90
5023;DHT22;2530;47.990;7.866;2022-10-31T16:34:26;16.40;99.90
5023;DHT22;2530;47.990;7.866;2022-10-31T16:36:51;15.90;99.90
5023;DHT22;2530;47.990;7.866;2022-10-31T16:39:17;15.70;99.90
5023;DHT22;2530;47.990;7.866;2022-10-31T16:41:48;15.60;99.90
5023;DHT22;2530;47.990;7.866;2022-10-31T16:44:19;15.60;99.90
5023;DHT22;2530;47.990;7.866;2022-10-31T16:46:46;15.80;99.90
5023;DHT22;2530;47.990;7.866;2022-10-31T16:49:12;15.90;99.90
5023;DHT22;2530;47.990;7.866;2022-10-31T16:51:37;15.90;99.90
5023;DHT22;2530;47.990;7.866;2022-10-31T16:54:03;15.60;99.90
5023;DHT22;2530;47.990;7.866;2022-10-31T16:56:34;15.40;99.90
5023;DHT22;2530;47.990;7.866;2022-10-31T16:59:03;15.30;99.90
5023;DHT22;2530;47.990;7.866;2022-10-31T17:01:30;15.20;99.90
5023;DHT22;2530;47.990;7.866;2022-10-31T17:03:55;15.10;99.90
5023;DHT22;2530;47.990;7.866;2022-10-31T17:06:21;15.20;99.90
5023;DHT22;2530;47.990;7.866;2022-10-31T17:08:46;15.00;99.90
5023;DHT22;2530;47.990;7.866;2022-10-31T17:11:15;14.90;99.90
5023;DHT22;2530;47.990;7.866;2022-10-31T17:13:42;14.80;99.90
5023;DHT22;2530;47.990;7.866;2022-10-31T17:16:08;14.80;99.90
5023;DHT22;2530;47.990;7.866;2022-10-31T17:18:33;14.70;99.90
5023;DHT22;2530;47.990;7.866;2022-10-31T17:21:01;14.70;99.90
5023;DHT22;2530;47.990;7.866;2022-10-31T17:23:27;14.70;99.90
5023;DHT22;2530;47.990;7.866;2022-10-31T17:25:53;14.70;99.90
5023;DHT22;2530;47.990;7.866;2022-10-31T17:28:19;14.70;99.90
5023;DHT22;2530;47.990;7.866;2022-10-31T17:30:44;14.70;99.90
5023;DHT22;2530;47.990;7.866;2022-10-31T17:33:14;14.60;99.90
5023;DHT22;2530;47.990;7.866;2022-10-31T17:35:41;14.60;99.90
5023;DHT22;2530;47.990;7.866;2022-10-31T17:38:07;14.50;99.90
5023;DHT22;2530;47.990;7.866;2022-10-31T17:41:03;14.50;99.90
5023;DHT22;2530;47.990;7.866;2022-10-31T17:43:32;14.50;99.90
5023;DHT22;2530;47.990;7.866;2022-10-31T17:46:01;14.40;99.90
5023;DHT22;2530;47.990;7.866;2022-10-31T17:48:29;14.40;99.90
5023;DHT22;2530;47.990;7.866;2022-10-31T17:50:59;14.40;99.90
5023;DHT22;2530;47.990;7.866;2022-10-31T17:53:48;14.40;99.90
5023;DHT22;2530;47.990;7.866;2022-10-31T17:56:34;14.30;99.90
5023;DHT22;2530;47.990;7.866;2022-10-31T18:02:24;14.30;99.90
5023;DHT22;2530;47.990;7.866;2022-10-31T18:05:09;14.30;99.90
5023;DHT22;2530;47.990;7.866;2022-10-31T18:07:35;14.30;99.90
5023;DHT22;2530;47.990;7.866;2022-10-31T18:10:01;14.20;99.90
5023;DHT22;2530;47.990;7.866;2022-10-31T18:19:12;14.20;99.90
5023;DHT22;2530;47.990;7.866;2022-10-31T18:21:40;14.20;99.90
5023;DHT22;2530;47.990;7.866;2022-10-31T18:24:18;14.10;99.90
5023;DHT22;2530;47.990;7.866;2022-10-31T18:26:57;14.10;99.90
5023;DHT22;2530;47.990;7.866;2022-10-31T18:29:23;14.00;99.90
5023;DHT22;2530;47.990;7.866;2022-10-31T18:31:48;14.00;99.90